Time;durP1;ratioP1;P1;durP2;ratioP2;P2;SDS_P1;SDS_P2;PMS_P1;PMS_P2;Temp;Humidity;BMP_temperature;BMP_pressure;BME280_temperature;BME280_humidity;BME280_pressure;Samples;Min_cycle;Max_cycle;Signal;HPM_P1;HPM_P2
2021/09/18 14:07:45;;;;;;;5.78;3.17;;;;;;;23.64;49.27;101641.47;5069547;28;20390;-43
2021/09/18 14:10:11;;;;;;;6.90;2.83;;;;;;;24.20;47.36;101640.25;5069819;28;20424;-43
2021/09/18 14:12:36;;;;;;;5.20;2.90;;;;;;;23.89;47.47;101637.44;5069495;28;20024;-44
2021/09/18 14:15:02;;;;;;;5.97;2.70;;;;;;;24.03;46.50;101643.06;5068361;28;20067;-46
2021/09/18 14:17:28;;;;;;;5.95;2.70;;;;;;;24.29;46.72;101639.50;5069023;28;20028;-46
2021/09/18 14:19:53;;;;;;;7.35;2.72;;;;;;;24.17;45.98;101635.47;5069034;28;20028;-46
2021/09/18 14:22:18;;;;;;;7.78;2.60;;;;;;;23.93;47.38;101629.81;5069235;28;20401;-46
2021/09/18 14:24:44;;;;;;;8.98;4.05;;;;;;;23.89;47.71;101631.38;5068549;28;20044;-46
2021/09/18 14:27:09;;;;;;;6.43;2.88;;;;;;;23.94;47.41;101634.03;5068972;28;20025;-45
2021/09/18 14:29:34;;;;;;;6.85;3.40;;;;;;;23.69;48.05;101627.53;5067431;28;20436;-46
2021/09/18 14:32:01;;;;;;;6.03;3.67;;;;;;;23.66;47.69;101617.50;5068342;28;20025;-45
2021/09/18 14:34:27;;;;;;;7.10;3.72;;;;;;;23.11;47.77;101618.66;5067731;28;20016;-46
2021/09/18 14:36:52;;;;;;;6.97;3.40;;;;;;;23.28;48.69;101618.53;5068432;28;20035;-45
2021/09/18 14:39:17;;;;;;;6.55;3.00;;;;;;;23.43;47.68;101618.66;5069532;28;20382;-45
2021/09/18 14:41:43;;;;;;;8.73;3.53;;;;;;;23.26;46.41;101610.88;5068878;28;20017;-46
2021/09/18 14:44:08;;;;;;;14.45;3.22;;;;;;;23.47;47.45;101617.09;5068906;28;20029;-46
2021/09/18 14:46:34;;;;;;;7.70;2.95;;;;;;;23.58;45.09;101608.19;5069437;28;20099;-46
2021/09/18 14:48:59;;;;;;;5.30;2.50;;;;;;;23.75;45.09;101609.91;5067795;28;20040;-45
2021/09/18 14:51:24;;;;;;;4.78;2.88;;;;;;;23.56;46.09;101606.84;5069103;28;20074;-45
2021/09/18 14:53:50;;;;;;;5.07;2.78;;;;;;;23.37;45.04;101606.47;5069446;28;20032;-45
2021/09/18 14:56:15;;;;;;;5.72;2.67;;;;;;;23.28;45.95;101598.22;5067778;28;20043;-45
2021/09/18 14:58:40;;;;;;;5.63;2.75;;;;;;;23.24;45.87;101602.41;5069001;28;20025;-45
2021/09/18 15:01:07;;;;;;;3.10;2.00;;;;;;;22.76;45.13;101609.34;5068974;28;20485;-46
2021/09/18 15:03:33;;;;;;;3.45;2.40;;;;;;;22.88;46.15;101602.06;5069359;28;20408;-45
2021/09/18 15:05:58;;;;;;;5.20;2.28;;;;;;;22.49;46.16;101612.72;5051203;28;20136;-44
2021/09/18 15:08:24;;;;;;;4.53;2.20;;;;;;;22.42;46.20;101612.13;5069203;28;20050;-44
2021/09/18 15:10:49;;;;;;;4.85;2.28;;;;;;;22.38;47.32;101607.59;5068375;28;20028;-45
2021/09/18 15:13:14;;;;;;;7.68;2.22;;;;;;;22.67;47.24;101602.91;5068550;28;20532;-46
2021/09/18 15:15:40;;;;;;;6.53;2.40;;;;;;;23.05;45.03;101601.22;5069037;28;20035;-45
2021/09/18 15:18:05;;;;;;;3.10;2.05;;;;;;;23.13;44.42;101601.53;5059499;28;20017;-45
2021/09/18 15:20:32;;;;;;;6.00;2.17;;;;;;;22.99;45.17;101597.72;5055681;28;20025;-45
2021/09/18 15:23:02;;;;;;;7.93;2.45;;;;;;;22.94;46.83;101595.00;5054303;28;20024;-46
2021/09/18 15:25:27;;;;;;;4.80;2.47;;;;;;;22.72;47.30;101600.31;5055225;28;20032;-46
2021/09/18 15:27:52;;;;;;;11.27;2.45;;;;;;;22.90;46.62;101602.63;5055255;28;20378;-46
2021/09/18 15:30:18;;;;;;;6.85;2.63;;;;;;;22.95;47.79;101604.53;5055290;28;20084;-46
2021/09/18 15:32:43;;;;;;;5.10;2.60;;;;;;;23.07;47.30;101596.47;5055320;28;20025;-46
2021/09/18 15:35:09;;;;;;;7.95;2.83;;;;;;;22.97;46.98;101605.88;5055608;28;20028;-45
2021/09/18 15:37:34;;;;;;;5.15;2.78;;;;;;;22.34;48.19;101604.66;5055431;28;20028;-44
2021/09/18 15:40:00;;;;;;;4.03;2.90;;;;;;;22.51;48.68;101605.38;5056508;28;20021;-45
2021/09/18 15:42:25;;;;;;;7.20;3.22;;;;;;;22.52;47.59;101601.69;5055491;28;20028;-45
2021/09/18 15:44:54;;;;;;;6.32;3.53;;;;;;;22.63;48.57;101605.25;5055152;28;20025;-45
2021/09/18 15:47:19;;;;;;;6.15;4.30;;;;;;;22.52;49.20;101600.91;5055138;28;20529;-45
2021/09/18 15:49:45;;;;;;;8.18;4.20;;;;;;;22.59;49.56;101592.84;5055048;28;20021;-45
2021/09/18 15:52:10;;;;;;;7.40;4.05;;;;;;;22.30;50.03;101595.69;5055281;28;20032;-45
2021/09/18 15:54:36;;;;;;;6.65;4.30;;;;;;;22.22;50.41;101604.00;5053933;28;20040;-45
2021/09/18 15:57:01;;;;;;;9.25;4.32;;;;;;;22.04;50.62;101605.84;5054025;28;20028;-45
2021/09/18 15:59:26;;;;;;;7.28;3.47;;;;;;;22.00;51.15;101609.19;5055179;28;20356;-45
2021/09/18 16:01:52;;;;;;;7.75;4.10;;;;;;;21.70;51.21;101605.13;5055157;28;20065;-44
2021/09/18 16:04:17;;;;;;;6.28;3.78;;;;;;;21.66;51.87;101603.19;5055109;28;20511;-45
2021/09/18 16:06:42;;;;;;;6.25;3.72;;;;;;;22.00;51.75;101601.31;5054996;28;20048;-44
2021/09/18 16:09:08;;;;;;;6.53;4.43;;;;;;;22.03;51.56;101612.13;5053659;28;20040;-45
2021/09/18 16:11:33;;;;;;;9.77;4.60;;;;;;;21.99;52.49;101608.41;5055659;28;20045;-45
2021/09/18 16:13:58;;;;;;;10.38;6.15;;;;;;;21.85;53.28;101609.78;5055150;28;20021;-45
2021/09/18 16:16:24;;;;;;;10.18;5.75;;;;;;;21.74;53.57;101611.47;5054789;28;20086;-44
2021/09/18 16:18:50;;;;;;;10.32;6.78;;;;;;;21.56;54.78;101607.28;5055089;28;20398;-45
2021/09/18 16:21:15;;;;;;;9.48;6.05;;;;;;;21.62;54.99;101605.53;5053697;28;20459;-46
2021/09/18 16:23:40;;;;;;;8.77;5.00;;;;;;;21.54;55.04;101605.91;5054477;28;20021;-45
2021/09/18 16:26:06;;;;;;;8.10;5.22;;;;;;;21.48;54.15;101599.78;5054559;28;20029;-45
2021/09/18 16:28:32;;;;;;;7.80;4.47;;;;;;;21.30;54.07;101608.69;5054063;28;20464;-45
2021/09/18 16:30:57;;;;;;;8.68;4.55;;;;;;;21.36;54.39;101605.13;5036490;28;20039;-45
2021/09/18 16:33:23;;;;;;;10.80;4.90;;;;;;;21.20;54.25;101598.00;5054622;28;20028;-45
2021/09/18 16:35:48;;;;;;;7.55;4.65;;;;;;;21.18;55.16;101603.50;5054208;28;20498;-45
2021/09/18 16:38:13;;;;;;;8.65;4.65;;;;;;;21.15;55.34;101603.19;5054892;28;20078;-45
2021/09/18 16:40:39;;;;;;;6.97;4.43;;;;;;;21.08;55.76;101605.94;5054409;28;20017;-44
2021/09/18 16:43:04;;;;;;;7.00;4.50;;;;;;;21.11;55.77;101604.66;5054398;28;20383;-44
2021/09/18 16:45:29;;;;;;;9.05;4.63;;;;;;;21.11;55.71;101604.66;5053250;28;20036;-44
2021/09/18 16:47:55;;;;;;;10.85;4.93;;;;;;;20.85;56.74;101603.44;5054650;28;20021;-44
2021/09/18 16:50:20;;;;;;;7.82;4.32;;;;;;;20.76;56.45;101597.75;5052797;28;20025;-44
2021/09/18 16:52:46;;;;;;;5.75;3.60;;;;;;;20.70;56.55;101603.94;5052657;28;20063;-45
2021/09/18 16:55:12;;;;;;;6.57;4.05;;;;;;;20.68;56.60;101604.16;5054080;28;20384;-49
2021/09/18 16:57:37;;;;;;;6.18;3.38;;;;;;;20.48;57.18;101611.63;5054348;28;20423;-43
2021/09/18 17:00:04;;;;;;;10.65;3.60;;;;;;;20.48;57.30;101612.47;5054014;28;20029;-43
2021/09/18 17:02:29;;;;;;;8.10;4.40;;;;;;;20.45;58.11;101618.13;5054180;28;20124;-43
2021/09/18 17:04:55;;;;;;;5.50;4.00;;;;;;;20.26;59.45;101614.09;5054231;28;20464;-43
2021/09/18 17:07:20;;;;;;;8.63;4.57;;;;;;;19.94;60.17;101617.09;5053561;28;20051;-43
2021/09/18 17:09:46;;;;;;;7.72;4.80;;;;;;;19.90;61.19;101615.94;5053880;28;20464;-43
2021/09/18 17:12:11;;;;;;;8.93;4.63;;;;;;;19.89;62.18;101613.56;5054161;28;20035;-45
2021/09/18 17:14:36;;;;;;;7.30;5.20;;;;;;;19.60;62.65;101623.91;5054028;28;20025;-43
2021/09/18 17:17:02;;;;;;;10.52;5.00;;;;;;;19.58;63.27;101623.31;5054041;28;20048;-44
2021/09/18 17:19:27;;;;;;;11.55;6.00;;;;;;;19.34;63.93;101618.03;5052393;28;20031;-43
2021/09/18 17:21:52;;;;;;;10.48;5.68;;;;;;;19.47;63.97;101619.63;5054066;28;20452;-44
2021/09/18 17:24:18;;;;;;;8.63;6.00;;;;;;;19.34;64.23;101623.28;5053647;28;20426;-43
2021/09/18 17:26:43;;;;;;;7.97;5.75;;;;;;;19.38;64.13;101621.00;5053720;28;20035;-43
2021/09/18 17:29:08;;;;;;;9.65;6.28;;;;;;;19.20;64.82;101614.00;5053980;28;20021;-44
2021/09/18 17:31:34;;;;;;;9.63;5.72;;;;;;;19.23;64.91;101610.94;5052338;28;20035;-44
2021/09/18 17:33:59;;;;;;;14.95;6.32;;;;;;;19.26;64.66;101613.13;5053550;28;20348;-45
2021/09/18 17:36:25;;;;;;;10.63;6.15;;;;;;;19.08;65.27;101608.75;5053590;28;20021;-43
2021/09/18 17:38:50;;;;;;;11.85;6.30;;;;;;;19.08;65.41;101615.81;5053669;28;20090;-44
2021/09/18 17:41:16;;;;;;;8.57;6.18;;;;;;;19.00;66.04;101619.53;5018887;28;20020;-44
2021/09/18 17:43:41;;;;;;;8.98;5.82;;;;;;;19.02;66.01;101616.66;5053969;28;20032;-44
2021/09/18 17:46:07;;;;;;;11.02;5.80;;;;;;;18.81;66.87;101613.53;5053381;28;20384;-43
2021/09/18 17:48:32;;;;;;;7.97;6.10;;;;;;;18.78;66.76;101615.78;5053676;28;20021;-43
2021/09/18 17:50:57;;;;;;;11.18;6.15;;;;;;;18.66;67.63;101616.50;5053875;28;20114;-43
2021/09/18 17:53:23;;;;;;;11.15;6.15;;;;;;;18.56;67.92;101615.41;5052421;28;20039;-43
2021/09/18 17:55:49;;;;;;;10.20;6.07;;;;;;;18.51;67.97;101617.91;5053536;28;20417;-43
2021/09/18 17:58:14;;;;;;;8.82;5.93;;;;;;;18.45;68.33;101611.72;5053456;28;20145;-42
2021/09/18 18:00:40;;;;;;;8.80;6.13;;;;;;;18.54;68.16;101618.25;5053184;28;20027;-42
2021/09/18 18:03:05;;;;;;;10.60;6.40;;;;;;;18.54;68.56;101612.22;5053179;28;20383;-44
2021/09/18 18:05:30;;;;;;;9.98;6.75;;;;;;;18.42;68.54;101609.56;5052960;28;20035;-44
2021/09/18 18:07:56;;;;;;;10.13;6.70;;;;;;;18.37;69.55;101612.03;5053196;28;20029;-43
2021/09/18 18:10:21;;;;;;;11.55;7.20;;;;;;;18.27;69.08;101617.78;5053590;28;20031;-43
2021/09/18 18:12:46;;;;;;;13.93;7.35;;;;;;;18.24;69.31;101620.78;5051885;28;20051;-43
2021/09/18 18:15:13;;;;;;;12.70;7.40;;;;;;;18.25;69.33;101617.19;5053642;28;20371;-44
2021/09/18 18:17:38;;;;;;;9.98;7.13;;;;;;;18.12;69.77;101625.16;5053338;28;20494;-44
2021/09/18 18:20:05;;;;;;;13.98;7.40;;;;;;;18.18;69.36;101616.44;5053025;28;20021;-44
2021/09/18 18:22:30;;;;;;;14.60;7.70;;;;;;;18.16;69.90;101618.50;5053332;28;20383;-44
2021/09/18 18:24:57;;;;;;;10.43;7.18;;;;;;;18.06;70.19;101620.78;5053295;28;20021;-43
2021/09/18 18:27:23;;;;;;;10.60;7.70;;;;;;;18.00;70.19;101628.47;5053177;28;20013;-43
2021/09/18 18:29:48;;;;;;;12.38;8.05;;;;;;;18.03;70.32;101620.19;5052341;28;20033;-43
2021/09/18 18:32:16;;;;;;;10.35;7.88;;;;;;;17.95;70.64;101627.53;5053226;28;20025;-43
2021/09/18 18:34:41;;;;;;;12.15;8.00;;;;;;;17.89;70.40;101629.19;5053096;28;20416;-43
2021/09/18 18:37:07;;;;;;;15.60;8.45;;;;;;;17.64;71.21;101628.38;5052928;28;20058;-43
2021/09/18 18:39:32;;;;;;;12.13;8.32;;;;;;;17.59;71.68;101634.22;5053300;28;20053;-44
2021/09/18 18:41:57;;;;;;;13.50;8.52;;;;;;;17.50;72.24;101633.69;5051561;28;20025;-43
2021/09/18 18:44:23;;;;;;;10.43;7.93;;;;;;;17.45;72.27;101630.91;5052716;28;20029;-43
2021/09/18 18:46:48;;;;;;;14.88;8.95;;;;;;;17.32;72.70;101631.81;5052760;28;20463;-43
2021/09/18 18:49:14;;;;;;;15.38;8.32;;;;;;;17.43;72.15;101638.16;5052085;28;20101;-44
2021/09/18 18:51:39;;;;;;;12.98;8.63;;;;;;;17.37;72.44;101636.38;5052488;28;20029;-47
2021/09/18 18:54:04;;;;;;;11.35;8.10;;;;;;;17.39;72.29;101638.81;5055855;28;20017;-43
2021/09/18 18:56:30;;;;;;;12.93;7.85;;;;;;;17.34;72.20;101640.22;5056444;28;20021;-43
2021/09/18 18:58:55;;;;;;;12.88;7.85;;;;;;;17.25;72.63;101641.47;5039045;28;20489;-43
2021/09/18 19:01:20;;;;;;;15.43;8.30;;;;;;;17.29;72.54;101652.31;5056850;28;20084;-43
2021/09/18 19:03:46;;;;;;;10.50;7.72;;;;;;;17.20;72.64;101648.34;5056354;28;20040;-44
2021/09/18 19:06:11;;;;;;;13.45;8.25;;;;;;;17.16;72.76;101647.97;5054898;28;20051;-43
2021/09/18 19:08:36;;;;;;;11.13;8.00;;;;;;;17.17;72.89;101646.16;5056740;28;20025;-43
2021/09/18 19:11:02;;;;;;;10.15;7.85;;;;;;;17.16;72.75;101644.56;5056811;28;20025;-43
2021/09/18 19:13:27;;;;;;;11.43;8.02;;;;;;;17.17;72.80;101648.75;5054974;28;20025;-43
2021/09/18 19:15:53;;;;;;;13.00;7.97;;;;;;;17.03;73.01;101645.41;5056424;28;20025;-44
2021/09/18 19:18:18;;;;;;;11.15;7.75;;;;;;;17.10;72.98;101652.22;5055995;28;20033;-44
2021/09/18 19:20:43;;;;;;;11.27;8.38;;;;;;;17.11;72.86;101648.59;5056335;28;20024;-44
2021/09/18 19:23:09;;;;;;;13.02;7.80;;;;;;;16.89;73.25;101649.91;5055099;28;20020;-43
2021/09/18 19:25:34;;;;;;;13.82;8.50;;;;;;;16.80;73.60;101659.78;5055988;28;20077;-44
2021/09/18 19:28:00;;;;;;;12.68;8.32;;;;;;;16.90;73.27;101659.34;5056164;28;20467;-47
2021/09/18 19:30:25;;;;;;;15.70;8.23;;;;;;;16.74;73.41;101650.13;5055879;28;20138;-46
2021/09/18 19:32:51;;;;;;;12.10;8.40;;;;;;;16.63;73.72;101656.81;5055929;28;20375;-43
2021/09/18 19:35:16;;;;;;;13.32;8.60;;;;;;;16.69;73.71;101653.38;5054698;28;20033;-43
2021/09/18 19:37:42;;;;;;;13.60;8.45;;;;;;;16.72;73.44;101648.75;5054585;28;20033;-43
2021/09/18 19:40:08;;;;;;;12.18;8.75;;;;;;;16.66;73.92;101645.16;5054902;28;20494;-44
2021/09/18 19:42:33;;;;;;;14.45;8.63;;;;;;;16.62;73.72;101644.75;5056410;28;20055;-43
2021/09/18 19:44:58;;;;;;;13.75;8.95;;;;;;;16.60;73.92;101645.94;5055780;28;20021;-44
2021/09/18 19:47:24;;;;;;;11.90;9.35;;;;;;;16.57;74.20;101652.41;5055615;28;20033;-44
2021/09/18 19:49:49;;;;;;;18.88;9.15;;;;;;;16.50;74.48;101645.59;5056424;28;20025;-44
2021/09/18 19:52:14;;;;;;;16.33;9.00;;;;;;;16.40;74.39;101648.63;5055569;28;20062;-44
2021/09/18 19:54:40;;;;;;;15.20;9.23;;;;;;;16.41;74.39;101651.03;5055783;28;20017;-44
2021/09/18 19:57:06;;;;;;;14.10;9.02;;;;;;;16.46;74.38;101655.66;5055748;28;20096;-43
2021/09/18 19:59:31;;;;;;;13.02;9.25;;;;;;;16.41;74.37;101655.44;5055585;28;20107;-43
2021/09/18 20:01:56;;;;;;;11.98;8.40;;;;;;;16.38;74.35;101655.84;5055488;28;20021;-44
2021/09/18 20:04:22;;;;;;;11.90;8.75;;;;;;;16.23;74.62;101656.88;5055155;28;20529;-43
2021/09/18 20:06:47;;;;;;;11.60;8.60;;;;;;;16.25;74.81;101656.66;5037255;28;20045;-43
2021/09/18 20:09:13;;;;;;;13.82;8.50;;;;;;;16.17;74.84;101657.69;5055329;28;20025;-46
2021/09/18 20:11:38;;;;;;;12.25;8.77;;;;;;;16.15;75.04;101654.47;5055041;28;20024;-44
2021/09/18 20:14:04;;;;;;;14.77;8.77;;;;;;;16.17;74.77;101649.06;5053827;28;20036;-43
2021/09/18 20:16:29;;;;;;;12.05;8.55;;;;;;;16.13;75.29;101653.88;5054933;28;20021;-44
2021/09/18 20:18:55;;;;;;;13.02;8.43;;;;;;;16.11;75.45;101655.91;5054943;28;20017;-43
2021/09/18 20:21:21;;;;;;;12.20;8.75;;;;;;;16.11;75.38;101653.31;5020888;28;20056;-43
2021/09/18 20:23:46;;;;;;;12.98;8.60;;;;;;;16.10;75.12;101656.88;5054946;28;20028;-43
2021/09/18 20:26:12;;;;;;;14.27;9.20;;;;;;;16.00;75.57;101656.50;5037229;28;20108;-43
2021/09/18 20:28:37;;;;;;;15.73;10.43;;;;;;;16.00;75.10;101652.09;5053422;28;20027;-43
2021/09/18 20:31:03;;;;;;;15.40;9.13;;;;;;;15.92;75.49;101654.91;5055060;28;20028;-42
2021/09/18 20:33:28;;;;;;;15.30;9.43;;;;;;;15.92;75.54;101654.09;5053406;28;20613;-42
2021/09/18 20:35:54;;;;;;;14.48;8.63;;;;;;;15.86;75.68;101653.09;5054551;28;20468;-43
2021/09/18 20:38:19;;;;;;;12.70;8.75;;;;;;;15.79;75.91;101644.47;5054508;28;20083;-42
2021/09/18 20:40:44;;;;;;;13.20;8.80;;;;;;;15.72;76.02;101649.69;5054381;28;20471;-42
2021/09/18 20:43:10;;;;;;;15.18;9.43;;;;;;;15.68;76.11;101639.84;5054396;28;20479;-43
2021/09/18 20:45:35;;;;;;;19.40;9.93;;;;;;;15.71;75.72;101648.09;5053107;28;20021;-43
2021/09/18 20:48:01;;;;;;;20.17;10.90;;;;;;;15.60;75.99;101648.66;5054586;28;20036;-44
2021/09/18 20:50:29;;;;;;;12.43;9.00;;;;;;;15.49;76.09;101644.03;5053180;28;20104;-43
2021/09/18 20:52:54;;;;;;;14.73;9.40;;;;;;;15.48;75.91;101645.03;5037239;28;20476;-43
2021/09/18 20:55:20;;;;;;;13.55;8.68;;;;;;;15.37;76.54;101643.00;5054225;28;20025;-43
2021/09/18 20:57:45;;;;;;;11.15;8.02;;;;;;;15.44;75.67;101641.19;5054226;28;20025;-43
2021/09/18 21:00:14;;;;;;;12.38;8.55;;;;;;;15.43;76.21;101643.00;5054383;28;20490;-43
2021/09/18 21:05:24;;;;;;;9.27;6.72;;;;;;;15.34;75.66;101636.38;5054354;28;20155;-43
2021/09/18 21:07:50;;;;;;;9.10;6.78;;;;;;;15.44;75.53;101636.78;5053834;28;20411;-42
2021/09/18 21:10:15;;;;;;;13.85;7.15;;;;;;;15.36;75.64;101636.97;5053798;28;20031;-43
2021/09/18 21:12:41;;;;;;;11.13;6.22;;;;;;;15.34;75.90;101633.78;5054290;28;20464;-43
2021/09/18 21:15:07;;;;;;;9.02;6.88;;;;;;;15.34;75.76;101637.19;5035292;28;20094;-43
2021/09/18 21:17:32;;;;;;;10.48;6.75;;;;;;;15.29;76.13;101641.38;5053574;28;20029;-44
2021/09/18 21:19:58;;;;;;;10.70;6.90;;;;;;;15.25;76.44;101643.56;5019349;28;20035;-42
2021/09/18 21:22:23;;;;;;;9.55;6.65;;;;;;;15.25;76.01;101650.59;5035722;28;20024;-42
2021/09/18 21:24:49;;;;;;;9.18;6.95;;;;;;;15.19;76.24;101646.97;5052279;28;20025;-43
2021/09/18 21:27:14;;;;;;;13.07;7.38;;;;;;;15.22;76.02;101650.94;5052626;28;20025;-43
2021/09/18 21:29:39;;;;;;;10.95;7.05;;;;;;;15.20;76.03;101648.56;5052381;28;20031;-44
2021/09/18 21:32:05;;;;;;;12.40;7.32;;;;;;;15.25;75.64;101650.59;5053607;28;20033;-42
2021/09/18 21:34:30;;;;;;;8.73;6.50;;;;;;;15.18;75.72;101645.34;5053427;28;20029;-42
2021/09/18 21:36:56;;;;;;;9.80;6.57;;;;;;;15.05;76.38;101647.94;5053579;28;20020;-43
2021/09/18 21:39:21;;;;;;;11.30;7.07;;;;;;;15.07;76.21;101640.69;5053456;28;20066;-43
2021/09/18 21:41:46;;;;;;;12.82;7.65;;;;;;;15.08;76.21;101643.13;5053561;28;20024;-43
2021/09/18 21:44:12;;;;;;;12.32;6.93;;;;;;;15.09;76.20;101642.13;5053450;28;20031;-42
2021/09/18 21:46:37;;;;;;;9.80;6.97;;;;;;;15.06;76.26;101641.72;5053308;28;20426;-42
2021/09/18 21:49:03;;;;;;;11.10;7.70;;;;;;;15.03;76.69;101642.09;5053264;28;20029;-43
2021/09/18 21:51:28;;;;;;;12.07;7.55;;;;;;;14.95;76.84;101640.47;5053540;28;20025;-43
2021/09/18 21:53:54;;;;;;;12.18;7.00;;;;;;;14.97;76.90;101642.88;5036011;28;20456;-42
2021/09/18 21:56:19;;;;;;;12.77;7.00;;;;;;;15.03;76.58;101636.91;5051933;28;20019;-43
2021/09/18 21:58:45;;;;;;;9.95;7.00;;;;;;;14.97;76.67;101641.09;5035383;28;20028;-42
2021/09/18 22:01:18;;;;;;;9.30;6.72;;;;;;;14.83;77.25;101635.00;5053061;28;20032;-43
2021/09/18 22:03:44;;;;;;;10.02;6.70;;;;;;;14.80;77.46;101642.41;5053430;28;20412;-49
2021/09/18 22:06:09;;;;;;;16.02;6.95;;;;;;;14.76;77.62;101636.81;5053079;28;20067;-43
2021/09/18 22:08:35;;;;;;;9.65;7.20;;;;;;;14.80;77.52;101638.00;5053426;28;20025;-43
2021/09/18 22:11:00;;;;;;;10.48;7.50;;;;;;;14.74;77.42;101636.19;5053435;28;20029;-42
2021/09/18 22:13:26;;;;;;;11.68;7.68;;;;;;;14.64;77.75;101633.94;5053355;28;20501;-42
2021/09/18 22:15:51;;;;;;;13.27;7.65;;;;;;;14.68;77.74;101625.75;5053095;28;20360;-42
2021/09/18 22:18:17;;;;;;;12.95;7.95;;;;;;;14.65;77.52;101630.34;5035297;28;20119;-42
2021/09/18 22:20:42;;;;;;;14.18;8.15;;;;;;;14.63;77.94;101628.94;5018971;28;20462;-43
2021/09/18 22:23:08;;;;;;;13.02;7.97;;;;;;;14.69;77.72;101635.94;5018923;28;20029;-42
2021/09/18 22:25:34;;;;;;;11.43;7.88;;;;;;;14.61;77.63;101634.31;5018882;28;20029;-43
2021/09/18 22:27:59;;;;;;;9.55;7.32;;;;;;;14.58;77.98;101636.50;5038052;28;20059;-42
2021/09/18 22:30:25;;;;;;;10.27;6.78;;;;;;;14.63;77.89;101631.53;5023475;28;20036;-41
2021/09/18 22:32:51;;;;;;;8.90;6.75;;;;;;;14.65;77.75;101630.34;5022760;28;20110;-42
2021/09/18 22:35:17;;;;;;;10.90;6.63;;;;;;;14.53;77.97;101634.50;5039595;28;20503;-42
2021/09/18 22:37:42;;;;;;;11.20;7.38;;;;;;;14.47;78.28;101629.19;5039013;28;20017;-43
2021/09/18 22:40:08;;;;;;;8.13;6.30;;;;;;;14.51;78.22;101627.84;5056924;28;20493;-42
2021/09/18 22:42:34;;;;;;;10.15;6.60;;;;;;;14.29;78.99;101627.09;5022636;28;20506;-42
2021/09/18 22:44:59;;;;;;;10.38;6.80;;;;;;;14.13;79.52;101620.41;5039812;28;20105;-42
2021/09/18 22:47:25;;;;;;;10.50;6.88;;;;;;;14.02;80.06;101624.31;5038717;28;20383;-42
2021/09/18 22:49:50;;;;;;;9.73;6.70;;;;;;;14.21;79.56;101623.66;5056645;28;20029;-43
2021/09/18 22:52:15;;;;;;;9.27;6.80;;;;;;;14.21;79.54;101618.47;5055229;28;20476;-43
2021/09/18 22:54:41;;;;;;;10.63;7.32;;;;;;;14.18;79.53;101618.84;5056523;28;20051;-43
2021/09/18 22:57:07;;;;;;;10.52;6.13;;;;;;;14.17;79.71;101619.03;5056780;28;20016;-43
2021/09/18 22:59:32;;;;;;;9.65;6.47;;;;;;;14.20;79.58;101619.44;5056359;28;20108;-42
2021/09/18 23:01:58;;;;;;;10.82;6.57;;;;;;;14.19;79.85;101622.25;5056654;28;20536;-42
2021/09/18 23:04:23;;;;;;;10.25;6.82;;;;;;;14.13;79.97;101620.41;5055059;28;20032;-42
2021/09/18 23:06:49;;;;;;;10.07;7.00;;;;;;;14.13;80.07;101616.00;5056050;28;20146;-42
2021/09/18 23:09:14;;;;;;;9.98;7.38;;;;;;;14.14;80.07;101617.59;5057053;28;20025;-43
2021/09/18 23:11:39;;;;;;;11.45;8.43;;;;;;;14.13;80.30;101613.41;5056733;28;20021;-43
2021/09/18 23:14:05;;;;;;;14.32;9.55;;;;;;;14.07;80.69;101621.16;5056397;28;20083;-43
2021/09/18 23:16:30;;;;;;;14.18;8.60;;;;;;;14.15;80.51;101623.59;5056287;28;20013;-42
2021/09/18 23:18:56;;;;;;;12.05;7.13;;;;;;;14.20;80.24;101618.66;5056173;28;20029;-42
2021/09/18 23:21:21;;;;;;;10.90;7.65;;;;;;;14.19;80.15;101619.66;5056009;28;20071;-43
2021/09/18 23:23:47;;;;;;;13.10;8.65;;;;;;;14.16;80.17;101617.44;5056020;28;20021;-43
2021/09/18 23:26:12;;;;;;;12.98;8.05;;;;;;;14.12;80.37;101624.78;5056646;28;20474;-42
2021/09/18 23:28:37;;;;;;;12.93;7.47;;;;;;;14.14;80.66;101624.59;5054773;28;20024;-43
2021/09/18 23:31:03;;;;;;;12.70;7.05;;;;;;;14.09;80.73;101617.38;5056225;28;20070;-45
2021/09/18 23:33:29;;;;;;;10.27;7.10;;;;;;;14.00;81.11;101618.50;5054524;28;20548;-43
2021/09/18 23:35:54;;;;;;;10.70;7.40;;;;;;;14.03;80.90;101619.94;5055880;28;20028;-42
2021/09/18 23:38:19;;;;;;;10.50;7.50;;;;;;;14.05;81.02;101623.94;5055052;28;20071;-42
2021/09/18 23:40:45;;;;;;;10.75;8.27;;;;;;;14.04;80.83;101618.94;5056256;28;20021;-42
2021/09/18 23:43:10;;;;;;;12.18;8.57;;;;;;;14.00;80.92;101619.31;5055708;28;20029;-42
2021/09/18 23:45:36;;;;;;;11.38;8.15;;;;;;;14.02;80.83;101621.72;5056062;28;20027;-42
2021/09/18 23:48:01;;;;;;;9.95;8.20;;;;;;;14.05;80.63;101616.16;5055712;28;20036;-43
2021/09/18 23:50:26;;;;;;;11.00;7.38;;;;;;;13.98;81.03;101605.72;5055344;28;20024;-43
2021/09/18 23:52:52;;;;;;;10.60;7.55;;;;;;;14.01;81.13;101612.31;5055404;28;20056;-42
2021/09/18 23:55:17;;;;;;;13.25;7.45;;;;;;;14.03;81.01;101612.13;5055656;28;20375;-42
2021/09/18 23:57:43;;;;;;;9.60;6.72;;;;;;;14.02;80.92;101610.53;5055703;28;20021;-42
